createdAt,value
2023-04-11T00:04:05.458Z,21.10
2023-04-11T00:09:11.494Z,24.50
2023-04-11T00:14:15.651Z,23.30
2023-04-11T00:19:18.487Z,26.90
2023-04-11T00:24:21.291Z,25.30
2023-04-11T00:29:24.151Z,23.10
2023-04-11T00:34:28.294Z,20.80
2023-04-11T00:39:34.161Z,21.50
2023-04-11T00:44:37.487Z,23.90
2023-04-11T00:49:41.072Z,25.10
2023-04-11T00:54:43.969Z,23.70
2023-04-11T00:59:51.177Z,24.10
2023-04-11T01:04:54.157Z,24.40
2023-04-11T01:09:57.902Z,23.70
2023-04-11T01:20:07.425Z,22.10
2023-04-11T01:25:11.210Z,23.30
2023-04-11T01:30:14.623Z,23.80
2023-04-11T01:35:18.800Z,29.30
2023-04-11T01:40:24.062Z,26.20
2023-04-11T01:45:27.586Z,26.00
2023-04-11T01:50:30.595Z,24.10
2023-04-11T01:55:33.487Z,22.70
2023-04-11T02:00:37.143Z,26.70
2023-04-11T02:05:40.152Z,26.40
2023-04-11T02:10:43.019Z,25.70
2023-04-11T02:15:45.952Z,29.00
2023-04-11T02:20:50.178Z,27.60
2023-04-11T02:25:53.040Z,26.10
2023-04-11T02:30:56.257Z,25.40
2023-04-11T02:35:59.259Z,23.40
2023-04-11T02:41:02.085Z,21.30
2023-04-11T02:46:12.855Z,19.90
2023-04-11T02:51:16.171Z,21.00
2023-04-11T02:56:20.013Z,19.10
2023-04-11T03:06:28.237Z,19.20
2023-04-11T03:11:31.085Z,19.80
2023-04-11T03:16:33.944Z,19.70
2023-04-11T03:21:36.774Z,18.80
2023-04-11T03:26:39.633Z,18.40
2023-04-11T03:31:42.569Z,17.30
2023-04-11T03:36:45.436Z,15.20
2023-04-11T03:41:49.166Z,17.40
2023-04-11T03:46:52.064Z,19.00
2023-04-11T03:51:54.924Z,18.90
2023-04-11T03:56:58.134Z,17.20
2023-04-11T04:02:01.074Z,18.10
2023-04-11T04:07:04.370Z,17.10
2023-04-11T04:12:07.743Z,17.00
2023-04-11T04:17:13.201Z,17.40
2023-04-11T04:22:17.900Z,15.40
2023-04-11T04:27:20.756Z,16.20
2023-04-11T04:32:24.993Z,16.00
2023-04-11T04:37:28.139Z,17.80
2023-04-11T04:42:31.065Z,17.80
2023-04-11T04:47:37.525Z,18.40
2023-04-11T04:52:40.465Z,17.50
2023-04-11T04:57:43.409Z,18.90
2023-04-11T05:02:47.178Z,19.20
2023-04-11T05:07:55.453Z,19.60
2023-04-11T05:12:58.434Z,18.90
2023-04-11T05:18:02.341Z,16.00
2023-04-11T05:23:05.201Z,19.40
2023-04-11T05:28:08.170Z,19.20
2023-04-11T05:33:12.862Z,18.50
2023-04-11T05:38:15.713Z,18.20
2023-04-11T05:43:18.711Z,17.70
2023-04-11T05:48:22.967Z,17.60
2023-04-11T05:53:25.913Z,16.40
2023-04-11T05:58:29.994Z,17.10
2023-04-11T06:03:32.972Z,15.80
2023-04-11T06:08:35.900Z,15.00
2023-04-11T06:13:38.724Z,14.60
2023-04-11T06:18:41.539Z,13.80
2023-04-11T06:23:44.350Z,14.40
2023-04-11T06:28:47.166Z,15.30
2023-04-11T06:33:50.003Z,14.30
2023-04-11T06:38:53.087Z,13.80
2023-04-11T06:43:56.223Z,15.90
2023-04-11T06:48:59.167Z,13.30
2023-04-11T06:54:03.127Z,12.90
2023-04-11T06:59:05.957Z,12.40
2023-04-11T07:04:09.015Z,12.80
2023-04-11T07:09:14.979Z,11.00
2023-04-11T07:14:18.327Z,10.10
2023-04-11T07:19:21.100Z,9.80
2023-04-11T07:24:26.112Z,8.20
2023-04-11T07:29:29.030Z,7.80
2023-04-11T07:34:31.880Z,7.20
2023-04-11T07:39:34.711Z,8.10
2023-04-11T07:44:37.514Z,8.10
2023-04-11T07:49:40.336Z,7.00
2023-04-11T07:54:43.224Z,6.40
2023-04-11T07:59:46.427Z,5.40
2023-04-11T08:04:49.452Z,6.80
2023-04-11T08:09:52.327Z,6.40
2023-04-11T08:14:55.173Z,7.20
2023-04-11T08:19:58.090Z,8.60
2023-04-11T08:25:00.917Z,10.40
2023-04-11T08:30:08.456Z,10.80
2023-04-11T08:35:11.306Z,9.70
2023-04-11T08:40:14.170Z,8.50
2023-04-11T08:45:17.644Z,9.80
2023-04-11T08:55:23.317Z,10.50
2023-04-11T09:00:29.029Z,9.30
2023-04-11T09:05:33.606Z,9.20
2023-04-11T09:10:39.162Z,9.40
2023-04-11T09:15:42.184Z,8.60
2023-04-11T09:20:59.850Z,8.50
2023-04-11T09:26:05.410Z,8.50
2023-04-11T09:31:09.424Z,8.50
2023-04-11T09:36:23.117Z,8.30
2023-04-11T09:41:38.908Z,8.30
2023-04-11T09:46:59.137Z,9.40
2023-04-11T09:52:03.899Z,9.80
2023-04-11T09:57:07.664Z,9.40
2023-04-11T10:02:10.910Z,9.90
2023-04-11T10:07:17.273Z,10.50
2023-04-11T10:12:33.852Z,8.50
2023-04-11T10:17:36.888Z,10.20
2023-04-11T10:22:46.481Z,9.50
2023-04-11T10:28:00.993Z,9.70
2023-04-11T10:33:16.086Z,10.10
2023-04-11T10:38:37.119Z,10.90
2023-04-11T10:43:40.052Z,10.70
2023-04-11T10:49:05.787Z,10.90
2023-04-11T10:54:25.708Z,11.00
2023-04-11T10:59:31.651Z,11.40
2023-04-11T11:04:37.175Z,10.40
2023-04-11T11:09:40.277Z,10.90
2023-04-11T11:14:47.549Z,11.30
2023-04-11T11:19:50.677Z,10.10
2023-04-11T11:24:53.559Z,9.80
2023-04-11T11:29:56.377Z,9.00
2023-04-11T11:34:59.229Z,9.60
2023-04-11T11:40:03.668Z,12.50
2023-04-11T11:45:21.672Z,10.40
2023-04-11T11:50:33.963Z,9.50
2023-04-11T11:55:37.025Z,10.30
2023-04-11T12:00:42.033Z,10.20
2023-04-11T12:05:47.736Z,10.50
2023-04-11T12:10:51.557Z,9.80
2023-04-11T12:15:56.793Z,10.20
2023-04-11T12:20:59.893Z,9.40
2023-04-11T12:26:02.758Z,10.70
2023-04-11T12:31:05.614Z,11.00
2023-04-11T12:36:09.262Z,10.10
2023-04-11T12:41:31.099Z,11.20
2023-04-11T12:46:34.890Z,10.80
2023-04-11T12:51:37.679Z,10.40
2023-04-11T12:56:40.749Z,10.30
2023-04-11T13:01:43.923Z,9.90
2023-04-11T13:06:47.646Z,9.00
2023-04-11T13:11:50.548Z,8.30
2023-04-11T13:16:53.791Z,8.60
2023-04-11T13:21:56.844Z,8.90
2023-04-11T13:27:05.045Z,9.80
2023-04-11T13:32:08.089Z,8.20
2023-04-11T13:37:11.097Z,9.10
2023-04-11T13:42:19.108Z,10.10
2023-04-11T13:47:24.945Z,9.20
2023-04-11T13:52:27.832Z,9.20
2023-04-11T13:57:30.915Z,9.60
2023-04-11T14:02:33.891Z,10.50
2023-04-11T14:07:36.881Z,9.00
2023-04-11T14:12:39.708Z,9.80
2023-04-11T14:17:43.963Z,9.20
2023-04-11T14:22:46.946Z,9.00
2023-04-11T14:27:52.700Z,10.10
2023-04-11T14:32:55.624Z,8.40
2023-04-11T14:37:58.439Z,9.00
2023-04-11T14:43:01.430Z,8.90
2023-04-11T14:48:10.247Z,8.60
2023-04-11T14:53:13.172Z,10.00
2023-04-11T14:58:19.091Z,9.40
2023-04-11T15:03:22.122Z,9.10
2023-04-11T15:08:25.238Z,10.40
2023-04-11T15:13:28.651Z,9.80
2023-04-11T15:18:32.954Z,10.00
2023-04-11T15:23:36.028Z,9.90
2023-04-11T15:28:39.695Z,9.50
2023-04-11T15:33:43.222Z,10.40
2023-04-11T15:38:46.207Z,9.70
2023-04-11T15:43:49.010Z,9.80
2023-04-11T15:48:51.814Z,10.40
2023-04-11T15:53:55.007Z,10.20
2023-04-11T16:04:00.875Z,11.00
2023-04-11T16:09:04.353Z,11.20
2023-04-11T16:14:07.640Z,10.40
2023-04-11T16:19:10.428Z,11.40
2023-04-11T16:24:13.268Z,10.20
2023-04-11T16:29:20.512Z,10.20
2023-04-11T16:34:24.338Z,10.10
2023-04-11T16:39:28.037Z,12.10
2023-04-11T16:44:31.647Z,11.30
2023-04-11T16:49:36.212Z,10.20
2023-04-11T16:54:40.654Z,11.40
2023-04-11T16:59:46.879Z,9.90
2023-04-11T17:04:51.104Z,10.90
2023-04-11T17:09:54.097Z,12.70
2023-04-11T17:15:00.005Z,13.20
2023-04-11T17:20:09.286Z,11.50
2023-04-11T17:25:12.209Z,11.70
2023-04-11T17:30:15.138Z,13.50
2023-04-11T17:35:17.962Z,14.30
2023-04-11T17:40:21.126Z,16.30
2023-04-11T17:45:24.145Z,18.00
2023-04-11T17:50:27.247Z,23.10
2023-04-11T17:55:30.211Z,19.30
2023-04-11T18:00:48.391Z,19.50
2023-04-11T18:05:58.299Z,19.50
2023-04-11T18:11:01.117Z,18.20
2023-04-11T18:16:06.479Z,19.70
2023-04-11T18:21:09.383Z,19.10
2023-04-11T18:26:12.357Z,20.30
2023-04-11T18:31:15.657Z,33.50
2023-04-11T18:36:18.852Z,26.50
2023-04-11T18:41:22.108Z,36.60
2023-04-11T18:46:24.969Z,49.40
2023-04-11T18:51:27.821Z,41.40
2023-04-11T18:56:30.649Z,47.40
2023-04-11T19:01:34.244Z,48.90
2023-04-11T19:06:37.292Z,52.30
2023-04-11T19:11:41.491Z,46.30
2023-04-11T19:16:44.650Z,41.10
2023-04-11T19:21:48.906Z,41.40
2023-04-11T19:26:52.789Z,41.00
2023-04-11T19:31:55.660Z,33.00
2023-04-11T19:36:58.470Z,34.10
2023-04-11T19:42:02.570Z,28.80
2023-04-11T19:47:05.540Z,22.80
2023-04-11T19:52:08.356Z,20.50
2023-04-11T19:57:11.720Z,19.70
2023-04-11T20:02:14.779Z,24.00
2023-04-11T20:07:17.723Z,24.00
2023-04-11T20:12:20.758Z,20.50
2023-04-11T20:17:23.582Z,21.00
2023-04-11T20:22:26.506Z,21.40
2023-04-11T20:27:29.320Z,22.50
2023-04-11T20:32:32.199Z,26.50
2023-04-11T20:37:35.522Z,40.10
2023-04-11T20:42:42.782Z,36.70
2023-04-11T20:47:46.289Z,32.70
2023-04-11T20:52:53.158Z,33.50
2023-04-11T20:57:56.335Z,29.70
2023-04-11T21:02:59.285Z,28.90
2023-04-11T21:08:02.215Z,27.30
2023-04-11T21:13:05.237Z,28.00
2023-04-11T21:18:08.358Z,21.60
2023-04-11T21:23:11.221Z,17.50
2023-04-11T21:28:14.208Z,20.70
2023-04-11T21:33:17.494Z,18.60
2023-04-11T21:38:20.355Z,17.20
2023-04-11T21:43:23.167Z,20.10
2023-04-11T21:48:25.951Z,21.30
2023-04-11T21:53:28.843Z,41.70
2023-04-11T21:58:31.701Z,22.40
2023-04-11T22:03:34.746Z,20.40
2023-04-11T22:08:40.702Z,23.80
2023-04-11T22:13:46.476Z,31.40
2023-04-11T22:18:49.919Z,25.00
2023-04-11T22:23:56.484Z,24.60
2023-04-11T22:29:03.349Z,24.40
2023-04-11T22:34:08.323Z,21.50
2023-04-11T22:39:11.254Z,24.10
2023-04-11T22:44:14.361Z,23.40
2023-04-11T22:49:17.710Z,20.10
2023-04-11T22:54:20.498Z,22.40
2023-04-11T22:59:27.889Z,15.50
2023-04-11T23:04:32.147Z,13.30
2023-04-11T23:09:35.234Z,12.00
2023-04-11T23:14:38.067Z,12.10
2023-04-11T23:19:41.164Z,11.50
2023-04-11T23:24:44.276Z,11.20
2023-04-11T23:29:52.755Z,11.90
2023-04-11T23:34:55.673Z,12.00
2023-04-11T23:39:59.670Z,12.80
2023-04-11T23:45:02.504Z,12.80
2023-04-11T23:50:06.062Z,12.70
2023-04-11T23:55:09.718Z,12.30
